sensor_id;sensor_type;location;lat;lon;timestamp;P1;durP1;ratioP1;P2;durP2;ratioP2
70367;SDS011;57789;53.868;10.728;2022-08-18T00:02:00;4.73;;;3.53;;
70367;SDS011;57789;53.868;10.728;2022-08-18T00:04:30;3.70;;;3.13;;
70367;SDS011;57789;53.868;10.728;2022-08-18T00:06:57;8.10;;;3.10;;
70367;SDS011;57789;53.868;10.728;2022-08-18T00:09:22;7.43;;;3.40;;
70367;SDS011;57789;53.868;10.728;2022-08-18T00:11:48;2.90;;;2.60;;
70367;SDS011;57789;53.868;10.728;2022-08-18T00:14:17;9.13;;;3.70;;
70367;SDS011;57789;53.868;10.728;2022-08-18T00:16:44;10.60;;;4.00;;
70367;SDS011;57789;53.868;10.728;2022-08-18T00:19:10;5.60;;;3.40;;
70367;SDS011;57789;53.868;10.728;2022-08-18T00:21:37;7.13;;;3.20;;
70367;SDS011;57789;53.868;10.728;2022-08-18T00:24:03;24.83;;;3.70;;
70367;SDS011;57789;53.868;10.728;2022-08-18T00:26:29;10.93;;;3.40;;
70367;SDS011;57789;53.868;10.728;2022-08-18T00:28:54;6.40;;;3.33;;
70367;SDS011;57789;53.868;10.728;2022-08-18T00:31:20;6.27;;;3.10;;
70367;SDS011;57789;53.868;10.728;2022-08-18T00:33:46;4.37;;;3.17;;
70367;SDS011;57789;53.868;10.728;2022-08-18T00:36:12;5.83;;;2.83;;
70367;SDS011;57789;53.868;10.728;2022-08-18T00:38:38;8.07;;;3.20;;
70367;SDS011;57789;53.868;10.728;2022-08-18T00:41:05;6.53;;;2.90;;
70367;SDS011;57789;53.868;10.728;2022-08-18T00:43:49;14.53;;;3.10;;
70367;SDS011;57789;53.868;10.728;2022-08-18T00:46:23;11.27;;;3.47;;
70367;SDS011;57789;53.868;10.728;2022-08-18T00:48:54;17.47;;;2.97;;
70367;SDS011;57789;53.868;10.728;2022-08-18T00:51:25;3.80;;;3.07;;
70367;SDS011;57789;53.868;10.728;2022-08-18T00:56:50;9.87;;;3.03;;
70367;SDS011;57789;53.868;10.728;2022-08-18T01:01:48;9.90;;;2.80;;
70367;SDS011;57789;53.868;10.728;2022-08-18T01:04:20;8.33;;;2.73;;
70367;SDS011;57789;53.868;10.728;2022-08-18T01:06:53;12.73;;;2.97;;
70367;SDS011;57789;53.868;10.728;2022-08-18T01:09:22;7.20;;;2.50;;
70367;SDS011;57789;53.868;10.728;2022-08-18T01:11:48;4.43;;;2.30;;
70367;SDS011;57789;53.868;10.728;2022-08-18T01:14:15;7.00;;;3.10;;
70367;SDS011;57789;53.868;10.728;2022-08-18T01:16:42;10.13;;;2.60;;
70367;SDS011;57789;53.868;10.728;2022-08-18T01:19:28;7.70;;;3.03;;
70367;SDS011;57789;53.868;10.728;2022-08-18T01:25:11;6.27;;;3.40;;
70367;SDS011;57789;53.868;10.728;2022-08-18T01:27:57;12.83;;;3.70;;
70367;SDS011;57789;53.868;10.728;2022-08-18T01:30:26;5.73;;;4.00;;
70367;SDS011;57789;53.868;10.728;2022-08-18T01:32:53;14.77;;;5.60;;
70367;SDS011;57789;53.868;10.728;2022-08-18T01:35:20;9.50;;;5.30;;
70367;SDS011;57789;53.868;10.728;2022-08-18T01:37:50;17.90;;;5.40;;
70367;SDS011;57789;53.868;10.728;2022-08-18T01:40:16;13.73;;;5.63;;
70367;SDS011;57789;53.868;10.728;2022-08-18T01:42:43;7.10;;;4.70;;
70367;SDS011;57789;53.868;10.728;2022-08-18T01:45:11;11.93;;;5.83;;
70367;SDS011;57789;53.868;10.728;2022-08-18T01:47:41;11.83;;;5.77;;
70367;SDS011;57789;53.868;10.728;2022-08-18T01:50:07;7.97;;;5.20;;
70367;SDS011;57789;53.868;10.728;2022-08-18T01:52:36;15.90;;;6.03;;
70367;SDS011;57789;53.868;10.728;2022-08-18T01:55:03;9.97;;;5.50;;
70367;SDS011;57789;53.868;10.728;2022-08-18T01:57:31;14.90;;;6.53;;
70367;SDS011;57789;53.868;10.728;2022-08-18T01:59:57;11.80;;;7.27;;
70367;SDS011;57789;53.868;10.728;2022-08-18T02:02:25;8.13;;;6.60;;
70367;SDS011;57789;53.868;10.728;2022-08-18T02:04:58;9.57;;;7.07;;
70367;SDS011;57789;53.868;10.728;2022-08-18T02:07:38;10.13;;;6.10;;
70367;SDS011;57789;53.868;10.728;2022-08-18T02:10:05;11.60;;;7.17;;
70367;SDS011;57789;53.868;10.728;2022-08-18T02:12:35;9.07;;;5.63;;
70367;SDS011;57789;53.868;10.728;2022-08-18T02:15:03;11.70;;;7.00;;
70367;SDS011;57789;53.868;10.728;2022-08-18T02:17:35;6.30;;;5.70;;
70367;SDS011;57789;53.868;10.728;2022-08-18T02:20:05;15.63;;;6.70;;
70367;SDS011;57789;53.868;10.728;2022-08-18T02:22:33;11.03;;;6.70;;
70367;SDS011;57789;53.868;10.728;2022-08-18T02:24:59;8.70;;;6.33;;
70367;SDS011;57789;53.868;10.728;2022-08-18T02:27:25;9.23;;;6.20;;
70367;SDS011;57789;53.868;10.728;2022-08-18T02:29:52;12.93;;;6.00;;
70367;SDS011;57789;53.868;10.728;2022-08-18T02:32:18;10.30;;;6.10;;
70367;SDS011;57789;53.868;10.728;2022-08-18T02:34:44;7.90;;;6.07;;
70367;SDS011;57789;53.868;10.728;2022-08-18T02:37:10;13.33;;;7.10;;
70367;SDS011;57789;53.868;10.728;2022-08-18T02:39:36;6.00;;;5.47;;
70367;SDS011;57789;53.868;10.728;2022-08-18T02:42:03;7.23;;;6.30;;
70367;SDS011;57789;53.868;10.728;2022-08-18T02:44:30;6.00;;;5.40;;
70367;SDS011;57789;53.868;10.728;2022-08-18T02:46:56;8.60;;;5.23;;
70367;SDS011;57789;53.868;10.728;2022-08-18T02:49:22;6.43;;;5.70;;
70367;SDS011;57789;53.868;10.728;2022-08-18T02:51:50;11.40;;;6.33;;
70367;SDS011;57789;53.868;10.728;2022-08-18T02:54:18;8.43;;;5.67;;
70367;SDS011;57789;53.868;10.728;2022-08-18T02:56:47;9.80;;;6.10;;
70367;SDS011;57789;53.868;10.728;2022-08-18T02:59:19;9.60;;;6.13;;
70367;SDS011;57789;53.868;10.728;2022-08-18T03:01:51;11.83;;;7.67;;
70367;SDS011;57789;53.868;10.728;2022-08-18T03:04:19;10.60;;;6.13;;
70367;SDS011;57789;53.868;10.728;2022-08-18T03:06:47;9.07;;;6.60;;
70367;SDS011;57789;53.868;10.728;2022-08-18T03:09:15;6.83;;;6.13;;
70367;SDS011;57789;53.868;10.728;2022-08-18T03:11:43;7.10;;;5.80;;
70367;SDS011;57789;53.868;10.728;2022-08-18T03:14:11;8.47;;;5.80;;
70367;SDS011;57789;53.868;10.728;2022-08-18T03:16:38;8.77;;;6.50;;
70367;SDS011;57789;53.868;10.728;2022-08-18T03:19:05;7.03;;;6.10;;
70367;SDS011;57789;53.868;10.728;2022-08-18T03:21:31;9.00;;;6.07;;
70367;SDS011;57789;53.868;10.728;2022-08-18T03:24:01;11.90;;;8.27;;
70367;SDS011;57789;53.868;10.728;2022-08-18T03:26:28;7.93;;;5.73;;
70367;SDS011;57789;53.868;10.728;2022-08-18T03:28:55;10.83;;;6.60;;
70367;SDS011;57789;53.868;10.728;2022-08-18T03:31:22;10.53;;;6.53;;
70367;SDS011;57789;53.868;10.728;2022-08-18T03:33:49;9.70;;;7.60;;
70367;SDS011;57789;53.868;10.728;2022-08-18T03:36:21;7.80;;;6.50;;
70367;SDS011;57789;53.868;10.728;2022-08-18T03:38:49;11.00;;;7.10;;
70367;SDS011;57789;53.868;10.728;2022-08-18T03:41:17;8.93;;;8.03;;
70367;SDS011;57789;53.868;10.728;2022-08-18T03:43:47;10.83;;;6.57;;
70367;SDS011;57789;53.868;10.728;2022-08-18T03:46:15;12.47;;;7.07;;
70367;SDS011;57789;53.868;10.728;2022-08-18T03:48:43;13.03;;;8.70;;
70367;SDS011;57789;53.868;10.728;2022-08-18T03:51:18;10.87;;;8.07;;
70367;SDS011;57789;53.868;10.728;2022-08-18T03:53:46;8.63;;;7.70;;
70367;SDS011;57789;53.868;10.728;2022-08-18T03:56:15;14.00;;;7.33;;
70367;SDS011;57789;53.868;10.728;2022-08-18T03:58:53;19.60;;;8.73;;
70367;SDS011;57789;53.868;10.728;2022-08-18T04:01:22;17.63;;;7.97;;
70367;SDS011;57789;53.868;10.728;2022-08-18T04:03:52;10.43;;;7.40;;
70367;SDS011;57789;53.868;10.728;2022-08-18T04:06:24;9.23;;;7.90;;
70367;SDS011;57789;53.868;10.728;2022-08-18T04:08:52;11.00;;;7.67;;
70367;SDS011;57789;53.868;10.728;2022-08-18T04:11:20;15.23;;;9.17;;
70367;SDS011;57789;53.868;10.728;2022-08-18T04:13:47;12.50;;;8.57;;
70367;SDS011;57789;53.868;10.728;2022-08-18T04:16:13;13.57;;;10.00;;
70367;SDS011;57789;53.868;10.728;2022-08-18T04:18:39;13.37;;;9.27;;
70367;SDS011;57789;53.868;10.728;2022-08-18T04:21:06;17.37;;;9.50;;
70367;SDS011;57789;53.868;10.728;2022-08-18T04:23:35;15.40;;;9.53;;
70367;SDS011;57789;53.868;10.728;2022-08-18T04:26:02;25.50;;;10.70;;
70367;SDS011;57789;53.868;10.728;2022-08-18T04:28:29;10.93;;;9.20;;
70367;SDS011;57789;53.868;10.728;2022-08-18T04:30:55;10.67;;;9.60;;
70367;SDS011;57789;53.868;10.728;2022-08-18T04:33:24;17.13;;;8.77;;
70367;SDS011;57789;53.868;10.728;2022-08-18T04:35:51;11.17;;;9.23;;
70367;SDS011;57789;53.868;10.728;2022-08-18T04:38:18;14.40;;;10.10;;
70367;SDS011;57789;53.868;10.728;2022-08-18T04:40:44;18.50;;;10.90;;
70367;SDS011;57789;53.868;10.728;2022-08-18T04:43:12;10.57;;;9.50;;
70367;SDS011;57789;53.868;10.728;2022-08-18T04:45:41;11.90;;;9.73;;
70367;SDS011;57789;53.868;10.728;2022-08-18T04:48:09;19.10;;;10.83;;
70367;SDS011;57789;53.868;10.728;2022-08-18T04:50:35;14.37;;;10.33;;
70367;SDS011;57789;53.868;10.728;2022-08-18T04:53:02;19.50;;;11.00;;
70367;SDS011;57789;53.868;10.728;2022-08-18T04:55:50;17.00;;;10.37;;
70367;SDS011;57789;53.868;10.728;2022-08-18T04:58:22;12.70;;;10.10;;
70367;SDS011;57789;53.868;10.728;2022-08-18T05:00:58;15.13;;;11.60;;
70367;SDS011;57789;53.868;10.728;2022-08-18T05:03:25;13.97;;;10.30;;
70367;SDS011;57789;53.868;10.728;2022-08-18T05:05:55;13.90;;;10.47;;
70367;SDS011;57789;53.868;10.728;2022-08-18T05:08:22;13.70;;;10.13;;
70367;SDS011;57789;53.868;10.728;2022-08-18T05:10:53;11.93;;;10.00;;
70367;SDS011;57789;53.868;10.728;2022-08-18T05:13:22;12.07;;;9.70;;
70367;SDS011;57789;53.868;10.728;2022-08-18T05:15:56;16.20;;;9.60;;
70367;SDS011;57789;53.868;10.728;2022-08-18T05:18:27;15.10;;;9.23;;
70367;SDS011;57789;53.868;10.728;2022-08-18T05:20:58;11.37;;;10.20;;
70367;SDS011;57789;53.868;10.728;2022-08-18T05:23:26;11.60;;;10.10;;
70367;SDS011;57789;53.868;10.728;2022-08-18T05:25:57;14.27;;;10.23;;
70367;SDS011;57789;53.868;10.728;2022-08-18T05:28:28;15.17;;;9.83;;
70367;SDS011;57789;53.868;10.728;2022-08-18T05:30:57;11.37;;;9.73;;
70367;SDS011;57789;53.868;10.728;2022-08-18T05:33:25;12.57;;;9.47;;
70367;SDS011;57789;53.868;10.728;2022-08-18T05:35:54;11.60;;;8.97;;
70367;SDS011;57789;53.868;10.728;2022-08-18T05:41:26;18.87;;;10.80;;
70367;SDS011;57789;53.868;10.728;2022-08-18T05:43:58;12.57;;;9.67;;
70367;SDS011;57789;53.868;10.728;2022-08-18T05:46:31;15.83;;;10.60;;
70367;SDS011;57789;53.868;10.728;2022-08-18T05:49:23;23.43;;;10.43;;
70367;SDS011;57789;53.868;10.728;2022-08-18T05:51:56;19.83;;;10.00;;
70367;SDS011;57789;53.868;10.728;2022-08-18T05:54:37;15.27;;;11.00;;
70367;SDS011;57789;53.868;10.728;2022-08-18T05:57:26;18.50;;;10.00;;
70367;SDS011;57789;53.868;10.728;2022-08-18T05:59:57;13.53;;;10.13;;
70367;SDS011;57789;53.868;10.728;2022-08-18T06:02:31;17.77;;;10.57;;
70367;SDS011;57789;53.868;10.728;2022-08-18T06:05:05;15.73;;;11.80;;
70367;SDS011;57789;53.868;10.728;2022-08-18T06:07:48;13.03;;;10.00;;
70367;SDS011;57789;53.868;10.728;2022-08-18T06:10:22;14.10;;;8.83;;
70367;SDS011;57789;53.868;10.728;2022-08-18T06:12:51;11.67;;;8.90;;
70367;SDS011;57789;53.868;10.728;2022-08-18T06:32:35;14.27;;;9.80;;
70367;SDS011;57789;53.868;10.728;2022-08-18T06:43:58;12.80;;;8.83;;
70367;SDS011;57789;53.868;10.728;2022-08-18T06:46:39;12.93;;;9.20;;
70367;SDS011;57789;53.868;10.728;2022-08-18T06:49:10;15.27;;;10.00;;
70367;SDS011;57789;53.868;10.728;2022-08-18T06:51:38;12.40;;;10.20;;
70367;SDS011;57789;53.868;10.728;2022-08-18T06:54:05;10.20;;;8.47;;
70367;SDS011;57789;53.868;10.728;2022-08-18T07:02:03;25.43;;;11.13;;
70367;SDS011;57789;53.868;10.728;2022-08-18T07:05:26;12.17;;;9.57;;
70367;SDS011;57789;53.868;10.728;2022-08-18T07:10:54;10.67;;;9.10;;
70367;SDS011;57789;53.868;10.728;2022-08-18T07:15:49;12.63;;;10.73;;
70367;SDS011;57789;53.868;10.728;2022-08-18T07:18:23;14.57;;;10.87;;
70367;SDS011;57789;53.868;10.728;2022-08-18T07:20:53;18.10;;;10.40;;
70367;SDS011;57789;53.868;10.728;2022-08-18T07:23:24;23.23;;;11.30;;
70367;SDS011;57789;53.868;10.728;2022-08-18T07:26:09;15.80;;;10.03;;
70367;SDS011;57789;53.868;10.728;2022-08-18T07:28:39;12.97;;;10.33;;
70367;SDS011;57789;53.868;10.728;2022-08-18T07:31:15;14.37;;;9.73;;
70367;SDS011;57789;53.868;10.728;2022-08-18T07:33:57;16.80;;;10.13;;
70367;SDS011;57789;53.868;10.728;2022-08-18T07:36:29;19.37;;;9.33;;
70367;SDS011;57789;53.868;10.728;2022-08-18T07:39:05;14.93;;;9.43;;
70367;SDS011;57789;53.868;10.728;2022-08-18T07:41:42;22.23;;;11.60;;
70367;SDS011;57789;53.868;10.728;2022-08-18T07:44:24;19.23;;;10.87;;
70367;SDS011;57789;53.868;10.728;2022-08-18T07:46:59;14.40;;;11.50;;
70367;SDS011;57789;53.868;10.728;2022-08-18T07:49:32;13.50;;;10.27;;
70367;SDS011;57789;53.868;10.728;2022-08-18T07:52:02;15.73;;;10.33;;
70367;SDS011;57789;53.868;10.728;2022-08-18T07:54:35;13.43;;;10.20;;
70367;SDS011;57789;53.868;10.728;2022-08-18T08:02:27;14.23;;;9.50;;
70367;SDS011;57789;53.868;10.728;2022-08-18T08:07:44;14.53;;;10.20;;
70367;SDS011;57789;53.868;10.728;2022-08-18T08:12:57;15.17;;;10.50;;
70367;SDS011;57789;53.868;10.728;2022-08-18T08:18:45;20.17;;;9.97;;
70367;SDS011;57789;53.868;10.728;2022-08-18T08:21:59;20.53;;;11.23;;
70367;SDS011;57789;53.868;10.728;2022-08-18T08:27:00;16.47;;;11.20;;
70367;SDS011;57789;53.868;10.728;2022-08-18T08:32:23;16.17;;;10.03;;
70367;SDS011;57789;53.868;10.728;2022-08-18T08:35:07;15.43;;;10.13;;
70367;SDS011;57789;53.868;10.728;2022-08-18T08:37:49;15.63;;;10.50;;
70367;SDS011;57789;53.868;10.728;2022-08-18T08:40:22;16.50;;;10.87;;
70367;SDS011;57789;53.868;10.728;2022-08-18T08:43:07;14.63;;;12.90;;
70367;SDS011;57789;53.868;10.728;2022-08-18T08:45:43;14.07;;;10.83;;
70367;SDS011;57789;53.868;10.728;2022-08-18T08:48:19;14.87;;;11.30;;
70367;SDS011;57789;53.868;10.728;2022-08-18T08:53:25;27.67;;;16.37;;
70367;SDS011;57789;53.868;10.728;2022-08-18T08:55:54;13.30;;;11.50;;
70367;SDS011;57789;53.868;10.728;2022-08-18T08:58:25;16.03;;;10.70;;
70367;SDS011;57789;53.868;10.728;2022-08-18T09:00:55;12.93;;;11.50;;
70367;SDS011;57789;53.868;10.728;2022-08-18T09:23:19;20.20;;;10.33;;
70367;SDS011;57789;53.868;10.728;2022-08-18T09:25:49;12.03;;;10.83;;
70367;SDS011;57789;53.868;10.728;2022-08-18T09:33:31;15.97;;;11.90;;
70367;SDS011;57789;53.868;10.728;2022-08-18T09:39:05;16.60;;;11.73;;
70367;SDS011;57789;53.868;10.728;2022-08-18T09:42:32;14.90;;;12.33;;
70367;SDS011;57789;53.868;10.728;2022-08-18T09:45:07;18.97;;;12.80;;
70367;SDS011;57789;53.868;10.728;2022-08-18T09:52:55;15.60;;;13.90;;
70367;SDS011;57789;53.868;10.728;2022-08-18T10:04:01;20.07;;;14.63;;
70367;SDS011;57789;53.868;10.728;2022-08-18T10:06:38;19.53;;;13.17;;
70367;SDS011;57789;53.868;10.728;2022-08-18T10:20:08;24.40;;;17.23;;
70367;SDS011;57789;53.868;10.728;2022-08-18T10:22:44;25.33;;;15.60;;
70367;SDS011;57789;53.868;10.728;2022-08-18T10:25:13;17.17;;;13.93;;
70367;SDS011;57789;53.868;10.728;2022-08-18T10:27:54;22.60;;;16.87;;
70367;SDS011;57789;53.868;10.728;2022-08-18T10:32:55;30.70;;;18.03;;
70367;SDS011;57789;53.868;10.728;2022-08-18T10:38:20;21.40;;;19.40;;
70367;SDS011;57789;53.868;10.728;2022-08-18T10:41:07;21.17;;;18.30;;
70367;SDS011;57789;53.868;10.728;2022-08-18T10:43:49;26.33;;;22.00;;
70367;SDS011;57789;53.868;10.728;2022-08-18T10:46:22;25.53;;;20.10;;
70367;SDS011;57789;53.868;10.728;2022-08-18T10:48:58;25.30;;;21.97;;
70367;SDS011;57789;53.868;10.728;2022-08-18T11:05:17;31.57;;;28.20;;
70367;SDS011;57789;53.868;10.728;2022-08-18T11:07:48;39.37;;;29.83;;
70367;SDS011;57789;53.868;10.728;2022-08-18T11:10:22;37.47;;;28.23;;
70367;SDS011;57789;53.868;10.728;2022-08-18T11:18:39;38.80;;;31.43;;
70367;SDS011;57789;53.868;10.728;2022-08-18T11:21:21;43.87;;;33.83;;
70367;SDS011;57789;53.868;10.728;2022-08-18T11:24:04;46.70;;;33.37;;
70367;SDS011;57789;53.868;10.728;2022-08-18T11:26:44;51.60;;;37.17;;
70367;SDS011;57789;53.868;10.728;2022-08-18T11:31:56;42.50;;;31.47;;
70367;SDS011;57789;53.868;10.728;2022-08-18T11:37:08;44.90;;;33.20;;
70367;SDS011;57789;53.868;10.728;2022-08-18T11:39:49;47.27;;;33.70;;
70367;SDS011;57789;53.868;10.728;2022-08-18T11:42:25;43.90;;;31.73;;
70367;SDS011;57789;53.868;10.728;2022-08-18T11:45:05;52.27;;;36.40;;
70367;SDS011;57789;53.868;10.728;2022-08-18T11:47:36;38.83;;;30.87;;
70367;SDS011;57789;53.868;10.728;2022-08-18T11:50:08;40.27;;;32.90;;
70367;SDS011;57789;53.868;10.728;2022-08-18T11:52:46;45.83;;;31.73;;
70367;SDS011;57789;53.868;10.728;2022-08-18T11:55:19;31.97;;;26.30;;
70367;SDS011;57789;53.868;10.728;2022-08-18T12:04:07;35.10;;;27.27;;
70367;SDS011;57789;53.868;10.728;2022-08-18T12:06:34;37.70;;;29.23;;
70367;SDS011;57789;53.868;10.728;2022-08-18T12:11:33;28.13;;;23.50;;
70367;SDS011;57789;53.868;10.728;2022-08-18T12:14:06;36.33;;;27.27;;
70367;SDS011;57789;53.868;10.728;2022-08-18T12:16:38;27.63;;;23.03;;
70367;SDS011;57789;53.868;10.728;2022-08-18T12:19:06;30.53;;;23.63;;
70367;SDS011;57789;53.868;10.728;2022-08-18T12:21:38;29.47;;;23.77;;
70367;SDS011;57789;53.868;10.728;2022-08-18T12:24:07;34.13;;;22.33;;
70367;SDS011;57789;53.868;10.728;2022-08-18T12:26:42;30.07;;;22.80;;
70367;SDS011;57789;53.868;10.728;2022-08-18T12:29:08;32.73;;;24.93;;
70367;SDS011;57789;53.868;10.728;2022-08-18T12:31:34;25.17;;;20.13;;
70367;SDS011;57789;53.868;10.728;2022-08-18T12:34:00;25.60;;;21.83;;
70367;SDS011;57789;53.868;10.728;2022-08-18T12:36:26;25.90;;;19.20;;
70367;SDS011;57789;53.868;10.728;2022-08-18T12:38:54;26.17;;;19.93;;
70367;SDS011;57789;53.868;10.728;2022-08-18T12:41:20;22.10;;;17.27;;
70367;SDS011;57789;53.868;10.728;2022-08-18T12:43:48;23.03;;;16.10;;
70367;SDS011;57789;53.868;10.728;2022-08-18T12:46:18;20.00;;;15.70;;
70367;SDS011;57789;53.868;10.728;2022-08-18T12:48:47;21.20;;;15.73;;
70367;SDS011;57789;53.868;10.728;2022-08-18T12:51:15;18.30;;;16.20;;
70367;SDS011;57789;53.868;10.728;2022-08-18T12:53:46;19.03;;;14.50;;
70367;SDS011;57789;53.868;10.728;2022-08-18T12:56:21;15.63;;;13.47;;
70367;SDS011;57789;53.868;10.728;2022-08-18T12:58:54;15.00;;;12.60;;
70367;SDS011;57789;53.868;10.728;2022-08-18T13:01:22;13.93;;;12.27;;
70367;SDS011;57789;53.868;10.728;2022-08-18T13:03:51;15.37;;;13.50;;
70367;SDS011;57789;53.868;10.728;2022-08-18T13:06:19;14.93;;;11.77;;
70367;SDS011;57789;53.868;10.728;2022-08-18T13:08:47;16.40;;;13.57;;
70367;SDS011;57789;53.868;10.728;2022-08-18T13:11:14;14.30;;;12.80;;
70367;SDS011;57789;53.868;10.728;2022-08-18T13:13:42;15.83;;;13.20;;
70367;SDS011;57789;53.868;10.728;2022-08-18T13:16:08;16.37;;;12.03;;
70367;SDS011;57789;53.868;10.728;2022-08-18T13:18:38;17.00;;;14.83;;
70367;SDS011;57789;53.868;10.728;2022-08-18T13:21:07;13.53;;;12.23;;
70367;SDS011;57789;53.868;10.728;2022-08-18T13:23:39;15.23;;;13.63;;
70367;SDS011;57789;53.868;10.728;2022-08-18T13:26:12;13.20;;;11.27;;
70367;SDS011;57789;53.868;10.728;2022-08-18T13:28:45;15.90;;;11.30;;
70367;SDS011;57789;53.868;10.728;2022-08-18T13:31:11;14.00;;;12.60;;
70367;SDS011;57789;53.868;10.728;2022-08-18T13:33:37;13.40;;;11.97;;
70367;SDS011;57789;53.868;10.728;2022-08-18T13:36:04;13.60;;;12.30;;
70367;SDS011;57789;53.868;10.728;2022-08-18T13:38:30;15.80;;;10.73;;
70367;SDS011;57789;53.868;10.728;2022-08-18T13:40:56;14.87;;;11.30;;
70367;SDS011;57789;53.868;10.728;2022-08-18T13:43:26;12.30;;;10.20;;
70367;SDS011;57789;53.868;10.728;2022-08-18T13:45:56;14.20;;;12.80;;
70367;SDS011;57789;53.868;10.728;2022-08-18T13:48:23;18.70;;;11.47;;
70367;SDS011;57789;53.868;10.728;2022-08-18T13:50:49;15.67;;;11.90;;
70367;SDS011;57789;53.868;10.728;2022-08-18T13:53:20;12.87;;;11.17;;
70367;SDS011;57789;53.868;10.728;2022-08-18T13:55:47;13.80;;;11.87;;
70367;SDS011;57789;53.868;10.728;2022-08-18T13:58:13;12.40;;;11.10;;
70367;SDS011;57789;53.868;10.728;2022-08-18T14:00:39;14.63;;;13.00;;
70367;SDS011;57789;53.868;10.728;2022-08-18T14:03:06;15.00;;;11.90;;
70367;SDS011;57789;53.868;10.728;2022-08-18T14:05:32;12.10;;;10.90;;
70367;SDS011;57789;53.868;10.728;2022-08-18T14:07:59;15.50;;;13.17;;
70367;SDS011;57789;53.868;10.728;2022-08-18T14:10:26;17.33;;;13.23;;
70367;SDS011;57789;53.868;10.728;2022-08-18T14:12:53;14.27;;;12.87;;
70367;SDS011;57789;53.868;10.728;2022-08-18T14:15:21;12.13;;;10.30;;
70367;SDS011;57789;53.868;10.728;2022-08-18T14:17:48;12.70;;;11.13;;
70367;SDS011;57789;53.868;10.728;2022-08-18T14:20:16;12.70;;;11.40;;
70367;SDS011;57789;53.868;10.728;2022-08-18T14:23:00;18.10;;;14.57;;
70367;SDS011;57789;53.868;10.728;2022-08-18T14:25:46;13.43;;;11.30;;
70367;SDS011;57789;53.868;10.728;2022-08-18T14:28:31;16.10;;;12.47;;
70367;SDS011;57789;53.868;10.728;2022-08-18T14:30:58;15.83;;;14.13;;
70367;SDS011;57789;53.868;10.728;2022-08-18T14:33:27;15.10;;;12.27;;
70367;SDS011;57789;53.868;10.728;2022-08-18T14:35:54;14.60;;;11.47;;
70367;SDS011;57789;53.868;10.728;2022-08-18T14:38:20;9.03;;;8.13;;
70367;SDS011;57789;53.868;10.728;2022-08-18T14:40:46;13.50;;;10.17;;
70367;SDS011;57789;53.868;10.728;2022-08-18T14:43:15;11.97;;;10.77;;
70367;SDS011;57789;53.868;10.728;2022-08-18T14:45:43;11.50;;;10.17;;
70367;SDS011;57789;53.868;10.728;2022-08-18T14:48:13;12.60;;;10.90;;
70367;SDS011;57789;53.868;10.728;2022-08-18T14:50:41;11.90;;;10.70;;
70367;SDS011;57789;53.868;10.728;2022-08-18T14:53:16;12.00;;;10.80;;
70367;SDS011;57789;53.868;10.728;2022-08-18T14:55:44;8.03;;;7.30;;
70367;SDS011;57789;53.868;10.728;2022-08-18T14:58:11;9.27;;;8.17;;
70367;SDS011;57789;53.868;10.728;2022-08-18T15:00:37;9.70;;;8.13;;
70367;SDS011;57789;53.868;10.728;2022-08-18T15:03:04;9.50;;;8.37;;
70367;SDS011;57789;53.868;10.728;2022-08-18T15:05:31;9.20;;;8.30;;
70367;SDS011;57789;53.868;10.728;2022-08-18T15:07:58;9.43;;;8.07;;
70367;SDS011;57789;53.868;10.728;2022-08-18T15:10:27;10.03;;;7.93;;
70367;SDS011;57789;53.868;10.728;2022-08-18T15:12:53;11.33;;;9.13;;
70367;SDS011;57789;53.868;10.728;2022-08-18T15:15:19;11.23;;;10.13;;
70367;SDS011;57789;53.868;10.728;2022-08-18T15:17:45;13.13;;;11.53;;
70367;SDS011;57789;53.868;10.728;2022-08-18T15:20:11;16.23;;;11.60;;
70367;SDS011;57789;53.868;10.728;2022-08-18T15:22:38;10.87;;;9.77;;
70367;SDS011;57789;53.868;10.728;2022-08-18T15:25:26;16.30;;;10.90;;
70367;SDS011;57789;53.868;10.728;2022-08-18T15:28:12;13.73;;;10.30;;
70367;SDS011;57789;53.868;10.728;2022-08-18T15:30:38;12.83;;;11.53;;
70367;SDS011;57789;53.868;10.728;2022-08-18T15:33:06;14.50;;;10.13;;
70367;SDS011;57789;53.868;10.728;2022-08-18T15:35:35;14.07;;;11.00;;
70367;SDS011;57789;53.868;10.728;2022-08-18T15:38:07;14.57;;;13.07;;
70367;SDS011;57789;53.868;10.728;2022-08-18T15:40:34;14.83;;;10.20;;
70367;SDS011;57789;53.868;10.728;2022-08-18T15:43:05;13.97;;;12.10;;
70367;SDS011;57789;53.868;10.728;2022-08-18T15:45:35;24.30;;;14.27;;
70367;SDS011;57789;53.868;10.728;2022-08-18T15:48:04;21.37;;;17.60;;
70367;SDS011;57789;53.868;10.728;2022-08-18T15:50:30;17.33;;;11.63;;
70367;SDS011;57789;53.868;10.728;2022-08-18T15:52:57;11.43;;;10.27;;
70367;SDS011;57789;53.868;10.728;2022-08-18T15:55:28;18.13;;;12.90;;
70367;SDS011;57789;53.868;10.728;2022-08-18T15:57:54;15.00;;;12.87;;
70367;SDS011;57789;53.868;10.728;2022-08-18T16:00:21;13.73;;;12.17;;
70367;SDS011;57789;53.868;10.728;2022-08-18T16:02:49;15.30;;;13.27;;
70367;SDS011;57789;53.868;10.728;2022-08-18T16:05:31;15.13;;;13.53;;
70367;SDS011;57789;53.868;10.728;2022-08-18T16:08:04;17.23;;;12.60;;
70367;SDS011;57789;53.868;10.728;2022-08-18T16:10:32;13.23;;;11.90;;
70367;SDS011;57789;53.868;10.728;2022-08-18T16:13:00;20.10;;;14.20;;
70367;SDS011;57789;53.868;10.728;2022-08-18T16:15:28;15.47;;;13.73;;
70367;SDS011;57789;53.868;10.728;2022-08-18T16:18:01;18.40;;;12.67;;
70367;SDS011;57789;53.868;10.728;2022-08-18T16:20:28;14.70;;;12.00;;
70367;SDS011;57789;53.868;10.728;2022-08-18T16:22:57;12.13;;;10.90;;
70367;SDS011;57789;53.868;10.728;2022-08-18T16:25:23;13.97;;;12.00;;
70367;SDS011;57789;53.868;10.728;2022-08-18T16:27:49;14.43;;;10.70;;
70367;SDS011;57789;53.868;10.728;2022-08-18T16:30:19;11.30;;;8.70;;
70367;SDS011;57789;53.868;10.728;2022-08-18T16:32:47;14.20;;;10.23;;
70367;SDS011;57789;53.868;10.728;2022-08-18T16:35:14;11.50;;;10.20;;
70367;SDS011;57789;53.868;10.728;2022-08-18T16:37:45;12.13;;;10.83;;
70367;SDS011;57789;53.868;10.728;2022-08-18T16:40:14;12.60;;;10.63;;
70367;SDS011;57789;53.868;10.728;2022-08-18T16:42:45;15.20;;;12.37;;
70367;SDS011;57789;53.868;10.728;2022-08-18T16:45:11;21.53;;;15.83;;
70367;SDS011;57789;53.868;10.728;2022-08-18T16:47:38;14.97;;;11.50;;
70367;SDS011;57789;53.868;10.728;2022-08-18T16:50:07;13.80;;;11.63;;
70367;SDS011;57789;53.868;10.728;2022-08-18T16:52:35;13.80;;;11.03;;
70367;SDS011;57789;53.868;10.728;2022-08-18T16:55:01;20.60;;;11.30;;
70367;SDS011;57789;53.868;10.728;2022-08-18T16:57:27;13.83;;;12.37;;
70367;SDS011;57789;53.868;10.728;2022-08-18T17:00:11;14.07;;;12.40;;
70367;SDS011;57789;53.868;10.728;2022-08-18T17:02:56;14.27;;;12.77;;
70367;SDS011;57789;53.868;10.728;2022-08-18T17:05:44;12.43;;;10.00;;
70367;SDS011;57789;53.868;10.728;2022-08-18T17:08:10;12.00;;;10.73;;
70367;SDS011;57789;53.868;10.728;2022-08-18T17:10:37;12.93;;;11.30;;
70367;SDS011;57789;53.868;10.728;2022-08-18T17:13:06;12.93;;;10.77;;
70367;SDS011;57789;53.868;10.728;2022-08-18T17:15:31;15.07;;;10.20;;
70367;SDS011;57789;53.868;10.728;2022-08-18T17:17:57;10.53;;;9.43;;
70367;SDS011;57789;53.868;10.728;2022-08-18T17:20:26;12.33;;;10.77;;